Wutai Shan, China
Current Conditions -  °F | °C
As of 8:00 AM on Monday 22 Dec 2014 (Local Time) from ZBSJ Reporting Station
Clear Clear  
Wind Chill: 23°   Ceiling: Unl
Heat Index: 32°   Visibility: 5mi
Dew Point:   Wind: 11mph
Humidity: 30%   Direction: 280°W
Pressure: 30.27"   Gusts: NA
Location:  39.03°N, 113.53°E
Report Text: ZBSJ 220000Z 28005MPS 8000 NSC 00/M16 Q1025 NOSIG
Loading
Personal Weather Stations






























Interactive Weather Map New forecast layout! Learn more

10-Day Weather Forecast

Advertisements
Track Severe Weather on mobile